createdAt,value
2019-05-17T00:01:44.019Z,72.24
2019-05-17T00:04:16.477Z,72.29
2019-05-17T00:06:47.640Z,72.34
2019-05-17T00:09:17.928Z,72.30
2019-05-17T00:11:48.550Z,72.23
2019-05-17T00:14:18.784Z,72.25
2019-05-17T00:16:49.002Z,72.29
2019-05-17T00:19:19.234Z,72.34
2019-05-17T00:21:51.807Z,72.28
2019-05-17T00:24:21.942Z,72.29
2019-05-17T00:26:52.201Z,72.41
2019-05-17T00:29:22.284Z,72.47
2019-05-17T00:31:52.675Z,72.54
2019-05-17T00:34:22.827Z,72.56
2019-05-17T00:36:52.972Z,72.49
2019-05-17T00:39:23.135Z,72.45
2019-05-17T00:41:53.313Z,72.50
2019-05-17T00:44:23.482Z,72.54
2019-05-17T00:46:53.623Z,72.63
2019-05-17T00:49:26.317Z,72.54
2019-05-17T00:51:56.718Z,72.57
2019-05-17T00:54:27.039Z,72.63
2019-05-17T00:56:57.494Z,72.50
2019-05-17T00:59:28.134Z,72.62
2019-05-17T01:01:58.612Z,72.56
2019-05-17T01:04:29.239Z,72.63
2019-05-17T01:06:59.859Z,72.61
2019-05-17T01:09:30.558Z,72.68
2019-05-17T01:12:01.021Z,72.72
2019-05-17T01:14:31.370Z,72.65
2019-05-17T01:17:01.788Z,72.59
2019-05-17T01:19:32.285Z,72.60
2019-05-17T01:22:02.754Z,72.76
2019-05-17T01:24:33.139Z,72.84
2019-05-17T01:27:03.509Z,72.88
2019-05-17T01:29:36.171Z,72.88
2019-05-17T01:32:07.508Z,72.87
2019-05-17T01:34:37.943Z,73.01
2019-05-17T01:37:08.695Z,73.12
2019-05-17T01:39:39.033Z,73.12
2019-05-17T01:42:09.285Z,73.28
2019-05-17T01:44:39.543Z,73.22
2019-05-17T01:47:09.802Z,73.30
2019-05-17T01:49:40.145Z,73.35
2019-05-17T01:52:10.728Z,73.30
2019-05-17T01:54:41.288Z,73.38
2019-05-17T01:57:11.530Z,73.40
2019-05-17T01:59:41.894Z,73.42
2019-05-17T02:02:16.387Z,73.53
2019-05-17T02:04:46.903Z,73.68
2019-05-17T02:07:17.365Z,73.86
2019-05-17T02:09:47.843Z,73.96
2019-05-17T02:12:26.757Z,74.00
2019-05-17T02:15:04.242Z,74.10
2019-05-17T02:17:34.489Z,74.21
2019-05-17T02:20:06.431Z,74.34
2019-05-17T02:22:36.957Z,74.56
2019-05-17T02:25:07.642Z,74.52
2019-05-17T02:27:43.933Z,74.60
2019-05-17T02:30:14.501Z,74.67
2019-05-17T02:32:46.572Z,74.79
2019-05-17T02:35:17.193Z,74.87
2019-05-17T02:37:47.517Z,74.88
2019-05-17T02:40:18.517Z,74.96
2019-05-17T02:42:48.754Z,74.99
2019-05-17T02:45:23.209Z,75.01
2019-05-17T02:47:53.663Z,75.09
2019-05-17T02:50:24.092Z,75.02
2019-05-17T02:52:54.276Z,75.07
2019-05-17T02:55:24.781Z,75.09
2019-05-17T02:57:55.161Z,75.05
2019-05-17T03:00:25.547Z,75.07
2019-05-17T03:02:55.976Z,74.97
2019-05-17T03:05:26.414Z,75.04
2019-05-17T03:07:56.585Z,74.94
2019-05-17T03:10:29.069Z,75.00
2019-05-17T03:12:58.788Z,75.01
2019-05-17T03:15:32.201Z,75.02
2019-05-17T03:18:03.791Z,75.10
2019-05-17T03:20:33.665Z,75.17
2019-05-17T03:23:04.287Z,75.29
2019-05-17T03:25:34.787Z,75.37
2019-05-17T03:28:05.465Z,75.40
2019-05-17T03:30:37.338Z,75.54
2019-05-17T03:33:08.662Z,75.82
2019-05-17T03:35:45.220Z,75.98
2019-05-17T03:38:14.115Z,76.11
2019-05-17T03:43:16.376Z,76.34
2019-05-17T03:45:46.739Z,76.42
2019-05-17T03:48:17.282Z,76.47
2019-05-17T03:50:47.601Z,76.50
2019-05-17T03:53:17.926Z,76.56
2019-05-17T03:55:48.446Z,76.60
2019-05-17T03:58:18.806Z,76.55
2019-05-17T04:00:49.044Z,76.60
2019-05-17T04:03:22.682Z,76.63
2019-05-17T04:05:52.905Z,76.72
2019-05-17T04:08:23.512Z,76.75
2019-05-17T04:10:53.795Z,76.81
2019-05-17T04:13:24.159Z,76.65
2019-05-17T04:15:54.322Z,76.72
2019-05-17T04:18:25.410Z,76.55
2019-05-17T04:20:55.731Z,76.51
2019-05-17T04:23:26.105Z,76.64
2019-05-17T04:25:56.160Z,76.71
2019-05-17T04:28:26.502Z,76.68
2019-05-17T04:30:56.925Z,76.71
2019-05-17T04:33:27.174Z,76.77
2019-05-17T04:35:57.403Z,76.79
2019-05-17T04:38:27.690Z,76.82
2019-05-17T04:40:58.061Z,76.69
2019-05-17T04:43:28.481Z,76.52
2019-05-17T04:45:58.675Z,76.55
2019-05-17T04:48:28.862Z,76.50
2019-05-17T04:51:02.253Z,76.06
2019-05-17T04:53:32.838Z,76.31
2019-05-17T04:56:03.536Z,76.32
2019-05-17T04:58:33.982Z,76.40
2019-05-17T05:01:04.542Z,76.36
2019-05-17T05:03:34.830Z,76.29
2019-05-17T05:06:05.436Z,76.06
2019-05-17T05:08:35.778Z,75.94
2019-05-17T05:11:06.774Z,76.00
2019-05-17T05:13:36.996Z,76.00
2019-05-17T05:16:07.262Z,75.94
2019-05-17T05:18:37.466Z,75.93
2019-05-17T05:21:07.748Z,75.94
2019-05-17T05:23:37.966Z,76.12
2019-05-17T05:26:08.283Z,76.15
2019-05-17T05:28:38.878Z,76.22
2019-05-17T05:31:09.362Z,76.36
2019-05-17T05:33:41.836Z,76.47
2019-05-17T05:36:11.861Z,76.56
2019-05-17T05:38:42.356Z,76.57
2019-05-17T05:41:12.605Z,76.66
2019-05-17T05:43:42.758Z,76.37
2019-05-17T05:46:13.082Z,76.52
2019-05-17T05:48:43.244Z,76.59
2019-05-17T05:51:13.794Z,76.69
2019-05-17T05:53:44.073Z,76.70
2019-05-17T05:56:14.299Z,76.72
2019-05-17T05:58:44.544Z,76.77
2019-05-17T06:01:14.770Z,76.67
2019-05-17T06:03:44.931Z,76.67
2019-05-17T06:06:15.123Z,76.81
2019-05-17T06:08:45.238Z,76.83
2019-05-17T06:11:15.471Z,76.87
2019-05-17T06:13:45.746Z,76.80
2019-05-17T06:16:16.103Z,76.81
2019-05-17T06:18:46.321Z,76.83
2019-05-17T06:21:16.569Z,76.90
2019-05-17T06:23:46.921Z,76.76
2019-05-17T06:26:18.181Z,76.76
2019-05-17T06:28:48.554Z,76.68
2019-05-17T06:31:18.773Z,76.67
2019-05-17T06:33:49.131Z,76.59
2019-05-17T06:36:21.620Z,76.52
2019-05-17T06:38:52.762Z,76.38
2019-05-17T06:41:22.896Z,76.33
2019-05-17T06:43:53.037Z,76.30
2019-05-17T06:46:23.138Z,76.09
2019-05-17T06:48:53.422Z,75.96
2019-05-17T06:51:23.713Z,75.98
2019-05-17T06:53:53.816Z,75.89
2019-05-17T06:56:24.024Z,75.71
2019-05-17T06:58:54.386Z,75.53
2019-05-17T07:01:24.741Z,75.48
2019-05-17T07:03:56.684Z,75.48
2019-05-17T07:06:29.628Z,75.35
2019-05-17T07:09:00.949Z,75.37
2019-05-17T07:11:31.272Z,75.37
2019-05-17T07:14:01.428Z,75.32
2019-05-17T07:16:31.662Z,75.12
2019-05-17T07:19:01.953Z,75.01
2019-05-17T07:21:32.160Z,74.84
2019-05-17T07:24:02.585Z,74.71
2019-05-17T07:26:33.391Z,74.62
2019-05-17T07:29:04.600Z,74.53
2019-05-17T07:31:34.855Z,74.48
2019-05-17T07:34:05.678Z,74.25
2019-05-17T07:36:35.993Z,74.17
2019-05-17T07:39:10.568Z,74.11
2019-05-17T07:41:40.100Z,73.83
2019-05-17T07:44:10.548Z,73.58
2019-05-17T07:46:40.707Z,73.38
2019-05-17T07:49:11.114Z,73.31
2019-05-17T07:51:41.380Z,73.24
2019-05-17T07:54:11.591Z,73.26
2019-05-17T07:56:41.865Z,73.16
2019-05-17T07:59:12.231Z,72.91
2019-05-17T08:01:42.910Z,71.48
2019-05-17T08:04:13.171Z,71.64
2019-05-17T08:06:43.538Z,71.43
2019-05-17T08:09:14.314Z,71.14
2019-05-17T08:11:44.630Z,70.81
2019-05-17T08:14:26.790Z,70.47
2019-05-17T08:16:52.436Z,70.48
2019-05-17T08:19:22.751Z,70.38
2019-05-17T08:21:53.086Z,70.45
2019-05-17T08:24:23.448Z,70.67
2019-05-17T08:26:53.754Z,70.59
2019-05-17T08:29:24.162Z,70.66
2019-05-17T08:31:54.456Z,70.86
2019-05-17T08:34:24.697Z,71.26
2019-05-17T08:36:54.872Z,71.56
2019-05-17T08:39:25.386Z,71.85
2019-05-17T08:41:55.696Z,72.25
2019-05-17T08:44:25.982Z,72.47
2019-05-17T08:46:56.210Z,72.45
2019-05-17T08:49:26.419Z,72.44
2019-05-17T08:51:56.791Z,72.17
2019-05-17T08:54:26.966Z,71.64
2019-05-17T08:56:57.289Z,71.29
2019-05-17T08:59:29.676Z,71.05
2019-05-17T09:02:00.184Z,70.77
2019-05-17T09:04:30.600Z,70.36
2019-05-17T09:07:03.240Z,70.31
2019-05-17T09:09:32.838Z,70.53
2019-05-17T09:12:03.064Z,70.66
2019-05-17T09:14:33.393Z,70.30
2019-05-17T09:17:03.789Z,70.69
2019-05-17T09:19:34.096Z,70.64
2019-05-17T09:22:04.481Z,70.49
2019-05-17T09:24:34.807Z,70.33
2019-05-17T09:27:05.028Z,70.15
2019-05-17T09:29:35.303Z,69.99
2019-05-17T09:32:05.627Z,69.78
2019-05-17T09:34:35.957Z,69.75
2019-05-17T09:37:06.759Z,69.54
2019-05-17T09:39:37.002Z,69.47
2019-05-17T09:42:07.265Z,69.19
2019-05-17T09:44:37.409Z,68.86
2019-05-17T09:47:09.971Z,68.64
2019-05-17T09:49:39.601Z,68.45
2019-05-17T09:52:09.836Z,68.33
2019-05-17T09:54:45.110Z,67.84
2019-05-17T09:57:12.212Z,66.99
2019-05-17T09:59:42.869Z,65.90
2019-05-17T10:02:13.432Z,64.71
2019-05-17T10:04:44.059Z,63.81
2019-05-17T10:07:14.698Z,63.16
2019-05-17T10:09:45.283Z,62.74
2019-05-17T10:12:16.010Z,62.02
2019-05-17T10:14:46.450Z,61.45
2019-05-17T10:17:17.164Z,61.30
2019-05-17T10:19:47.782Z,60.66
2019-05-17T10:22:20.017Z,60.08
2019-05-17T10:24:50.492Z,59.45
2019-05-17T10:27:21.367Z,58.48
2019-05-17T10:29:55.005Z,57.65
2019-05-17T10:32:25.457Z,56.61
2019-05-17T10:34:56.026Z,55.36
2019-05-17T10:37:26.733Z,54.33
2019-05-17T10:39:57.365Z,53.95
2019-05-17T10:42:30.464Z,52.60
2019-05-17T10:45:00.340Z,52.07
2019-05-17T10:47:30.808Z,52.42
2019-05-17T10:50:01.556Z,52.89
2019-05-17T10:52:32.031Z,52.87
2019-05-17T10:55:02.517Z,52.65
2019-05-17T10:57:33.044Z,52.56
2019-05-17T11:00:03.806Z,52.63
2019-05-17T11:02:34.377Z,52.71
2019-05-17T11:05:05.336Z,51.84
2019-05-17T11:07:36.047Z,52.78
2019-05-17T11:10:11.191Z,52.61
2019-05-17T11:12:40.092Z,52.36
2019-05-17T11:15:12.217Z,52.07
2019-05-17T11:17:43.015Z,51.82
2019-05-17T11:20:14.333Z,51.19
2019-05-17T11:22:44.875Z,50.44
2019-05-17T11:25:15.477Z,49.92
2019-05-17T11:27:45.902Z,49.44
2019-05-17T11:30:17.194Z,48.95
2019-05-17T11:32:48.143Z,48.53
2019-05-17T11:35:18.847Z,48.52
2019-05-17T11:37:49.652Z,47.60
2019-05-17T11:40:24.801Z,46.87
2019-05-17T11:42:55.329Z,46.10
2019-05-17T11:45:29.034Z,45.13
2019-05-17T11:47:58.541Z,44.62
2019-05-17T11:50:29.203Z,43.85
2019-05-17T11:52:59.681Z,43.76
2019-05-17T11:55:30.186Z,43.34
2019-05-17T11:58:00.715Z,43.67
2019-05-17T12:00:31.618Z,43.92
2019-05-17T12:03:02.326Z,44.56
2019-05-17T12:05:32.979Z,45.22
2019-05-17T12:08:03.651Z,46.28
2019-05-17T12:10:34.262Z,46.37
2019-05-17T12:13:04.885Z,46.43
2019-05-17T12:15:44.444Z,46.11
2019-05-17T12:18:07.745Z,45.60
2019-05-17T12:20:38.664Z,45.06
2019-05-17T12:23:09.299Z,44.71
2019-05-17T12:25:39.926Z,44.56
2019-05-17T12:28:10.503Z,44.55
2019-05-17T12:30:41.070Z,44.44
2019-05-17T12:33:11.781Z,44.10
2019-05-17T12:35:42.383Z,43.66
2019-05-17T12:38:13.129Z,43.23
2019-05-17T12:40:45.045Z,43.35
2019-05-17T12:43:15.658Z,44.18
2019-05-17T12:45:59.660Z,44.64
2019-05-17T12:48:18.677Z,45.18
2019-05-17T12:50:49.523Z,45.21
2019-05-17T12:53:20.454Z,44.57
2019-05-17T12:55:51.746Z,43.65
2019-05-17T12:58:22.185Z,42.53
2019-05-17T13:00:52.858Z,40.68
2019-05-17T13:03:23.533Z,39.71
2019-05-17T13:05:54.162Z,39.26
2019-05-17T13:08:24.556Z,39.25
2019-05-17T13:10:55.126Z,39.67
2019-05-17T13:16:16.825Z,40.07
2019-05-17T13:18:35.642Z,40.73
2019-05-17T13:21:06.891Z,41.13
2019-05-17T13:23:37.121Z,41.14
2019-05-17T13:26:07.388Z,42.22
2019-05-17T13:28:37.525Z,42.85
2019-05-17T13:31:07.775Z,43.53
2019-05-17T13:33:38.127Z,44.46
2019-05-17T13:36:08.517Z,44.86
2019-05-17T13:38:38.750Z,44.71
2019-05-17T13:41:09.132Z,44.36
2019-05-17T13:43:41.044Z,44.25
2019-05-17T13:46:11.381Z,44.21
2019-05-17T13:48:41.726Z,43.92
2019-05-17T13:51:12.138Z,43.87
2019-05-17T13:53:42.656Z,42.97
2019-05-17T13:56:13.077Z,44.19
2019-05-17T13:58:43.510Z,44.87
2019-05-17T14:01:13.938Z,45.29
2019-05-17T14:03:44.254Z,45.66
2019-05-17T14:06:14.869Z,46.18
2019-05-17T14:08:45.636Z,46.73
2019-05-17T14:11:15.896Z,47.30
2019-05-17T14:13:46.827Z,47.49
2019-05-17T14:16:17.225Z,47.61
2019-05-17T14:18:47.729Z,47.64
2019-05-17T14:21:18.131Z,47.60
2019-05-17T14:23:48.490Z,47.66
2019-05-17T14:26:18.683Z,47.78
2019-05-17T14:28:49.109Z,47.61
2019-05-17T14:31:19.890Z,47.45
2019-05-17T14:33:50.119Z,47.31
2019-05-17T14:36:21.198Z,47.26
2019-05-17T14:38:51.466Z,47.09
2019-05-17T14:41:21.862Z,47.15
2019-05-17T14:43:52.217Z,47.10
2019-05-17T14:46:22.554Z,47.35
2019-05-17T14:48:52.760Z,47.59
2019-05-17T14:51:23.267Z,47.83
2019-05-17T14:53:53.700Z,48.23
2019-05-17T14:56:24.043Z,48.61
2019-05-17T14:58:54.421Z,48.77
2019-05-17T15:01:24.674Z,48.81
2019-05-17T15:03:55.080Z,48.69
2019-05-17T15:06:25.461Z,48.69
2019-05-17T15:08:55.808Z,48.65
2019-05-17T15:11:25.966Z,48.85
2019-05-17T15:13:56.363Z,48.97
2019-05-17T15:16:26.748Z,49.33
2019-05-17T15:18:56.948Z,49.60
2019-05-17T15:21:27.199Z,49.92
2019-05-17T15:23:57.440Z,50.03
2019-05-17T15:26:27.835Z,50.09
2019-05-17T15:28:58.165Z,50.15
2019-05-17T15:31:28.523Z,50.33
2019-05-17T15:33:58.770Z,50.54
2019-05-17T15:36:29.112Z,50.57
2019-05-17T15:38:59.389Z,50.86
2019-05-17T15:41:29.781Z,50.93
2019-05-17T15:44:00.285Z,51.15
2019-05-17T15:46:30.670Z,51.34
2019-05-17T15:49:00.916Z,51.58
2019-05-17T15:51:31.608Z,51.68
2019-05-17T15:54:02.335Z,51.86
2019-05-17T15:56:32.933Z,52.01
2019-05-17T15:59:03.788Z,52.18
2019-05-17T16:01:34.527Z,52.33
2019-05-17T16:04:05.433Z,52.59
2019-05-17T16:06:36.007Z,52.78
2019-05-17T16:09:08.018Z,52.93
2019-05-17T16:11:38.677Z,52.91
2019-05-17T16:14:09.613Z,53.08
2019-05-17T16:16:45.406Z,53.22
2019-05-17T16:19:16.038Z,53.33
2019-05-17T16:21:46.733Z,53.48
2019-05-17T16:24:17.261Z,53.67
2019-05-17T16:26:47.893Z,53.75
2019-05-17T16:29:18.356Z,53.89
2019-05-17T16:31:49.003Z,54.02
2019-05-17T16:34:19.548Z,54.04
2019-05-17T16:36:50.144Z,54.21
2019-05-17T16:39:20.769Z,54.29
2019-05-17T16:41:51.408Z,54.25
2019-05-17T16:44:22.137Z,54.31
2019-05-17T16:46:52.758Z,54.34
2019-05-17T16:49:23.396Z,54.41
2019-05-17T16:51:54.207Z,54.40
2019-05-17T16:54:24.794Z,54.42
2019-05-17T16:56:55.402Z,54.33
2019-05-17T16:59:25.960Z,54.40
2019-05-17T17:01:56.432Z,54.49
2019-05-17T17:04:27.136Z,54.67
2019-05-17T17:06:57.636Z,54.68
2019-05-17T17:09:28.252Z,54.85
2019-05-17T17:11:58.895Z,54.79
2019-05-17T17:14:29.933Z,54.81
2019-05-17T17:17:00.546Z,54.72
2019-05-17T17:19:31.307Z,54.53
2019-05-17T17:22:01.748Z,54.45
2019-05-17T17:24:32.396Z,54.39
2019-05-17T17:27:02.786Z,54.44
2019-05-17T17:29:33.301Z,54.48
2019-05-17T17:32:03.800Z,54.48
2019-05-17T17:34:34.402Z,54.46
2019-05-17T17:37:04.987Z,54.51
2019-05-17T17:39:35.633Z,54.61
2019-05-17T17:42:07.181Z,54.69
2019-05-17T17:44:37.697Z,54.84
2019-05-17T17:47:08.243Z,54.93
2019-05-17T17:49:38.669Z,54.94
2019-05-17T17:52:09.297Z,54.85
2019-05-17T17:54:40.048Z,54.80
2019-05-17T17:57:10.709Z,54.95
2019-05-17T17:59:41.551Z,55.06
2019-05-17T18:02:12.334Z,55.33
2019-05-17T18:04:42.889Z,55.46
2019-05-17T18:07:13.940Z,55.49
2019-05-17T18:09:54.000Z,55.76
2019-05-17T18:12:29.594Z,55.94
2019-05-17T18:15:02.750Z,56.19
2019-05-17T18:17:39.069Z,56.34
2019-05-17T18:20:03.892Z,56.54
2019-05-17T18:22:34.185Z,56.64
2019-05-17T18:25:04.576Z,56.73
2019-05-17T18:27:34.956Z,56.72
2019-05-17T18:30:05.634Z,56.78
2019-05-17T18:32:36.080Z,57.01
2019-05-17T18:35:06.711Z,57.24
2019-05-17T18:37:37.017Z,57.43
2019-05-17T18:40:10.623Z,57.73
2019-05-17T18:42:43.695Z,58.08
2019-05-17T18:45:15.353Z,58.19
2019-05-17T18:47:46.040Z,58.29
2019-05-17T18:50:18.491Z,58.40
2019-05-17T18:52:48.837Z,58.52
2019-05-17T18:55:19.207Z,58.90
2019-05-17T18:57:49.884Z,59.12
2019-05-17T19:00:20.427Z,59.51
2019-05-17T19:02:50.803Z,59.73
2019-05-17T19:05:21.322Z,59.93
2019-05-17T19:07:51.781Z,60.13
2019-05-17T19:10:23.763Z,60.44
2019-05-17T19:12:54.087Z,60.59
2019-05-17T19:15:24.535Z,60.65
2019-05-17T19:17:54.798Z,60.76
2019-05-17T19:20:25.180Z,60.88
2019-05-17T19:22:55.567Z,60.79
2019-05-17T19:25:25.881Z,60.80
2019-05-17T19:27:56.293Z,60.93
2019-05-17T19:30:26.892Z,60.92
2019-05-17T19:32:57.083Z,60.80
2019-05-17T19:35:27.630Z,60.88
2019-05-17T19:37:58.302Z,60.99
2019-05-17T19:40:28.870Z,61.11
2019-05-17T19:42:59.419Z,61.37
2019-05-17T19:45:30.099Z,61.44
2019-05-17T19:48:00.678Z,61.60
2019-05-17T19:50:31.305Z,61.62
2019-05-17T19:55:26.097Z,61.82
2019-05-17T19:57:56.650Z,61.91
2019-05-17T20:00:27.442Z,62.12
2019-05-17T20:02:58.016Z,61.99
2019-05-17T20:05:28.654Z,62.16
2019-05-17T20:07:59.993Z,62.11
2019-05-17T20:10:30.757Z,62.27
2019-05-17T20:13:06.724Z,62.26
2019-05-17T20:15:37.250Z,62.22
2019-05-17T20:18:08.060Z,62.32
2019-05-17T20:20:38.604Z,62.34
2019-05-17T20:23:09.303Z,62.33
2019-05-17T20:25:39.935Z,62.42
2019-05-17T20:28:11.435Z,62.31
2019-05-17T20:30:45.001Z,62.34
2019-05-17T20:33:15.700Z,62.35
2019-05-17T20:35:46.244Z,62.42
2019-05-17T20:38:16.751Z,62.37
2019-05-17T20:40:49.203Z,62.33
2019-05-17T20:43:19.859Z,62.33
2019-05-17T20:45:50.386Z,62.41
2019-05-17T20:48:20.949Z,62.58
2019-05-17T20:50:51.699Z,62.74
2019-05-17T20:53:22.372Z,62.71
2019-05-17T20:55:52.909Z,62.93
2019-05-17T20:58:23.391Z,63.04
2019-05-17T21:00:54.080Z,63.16
2019-05-17T21:03:24.701Z,63.36
2019-05-17T21:05:55.380Z,63.51
2019-05-17T21:08:26.850Z,63.65
2019-05-17T21:10:57.762Z,63.76
2019-05-17T21:13:28.669Z,63.96
2019-05-17T21:15:59.425Z,64.05
2019-05-17T21:18:30.137Z,64.16
2019-05-17T21:21:00.997Z,64.32
2019-05-17T21:23:31.419Z,64.44
2019-05-17T21:26:02.368Z,64.60
2019-05-17T21:28:34.225Z,64.69
2019-05-17T21:31:07.938Z,64.71
2019-05-17T21:33:37.106Z,64.89
2019-05-17T21:36:07.707Z,64.96
2019-05-17T21:38:41.377Z,65.03
2019-05-17T21:41:12.297Z,65.04
2019-05-17T21:43:42.782Z,65.13
2019-05-17T21:46:13.016Z,65.24
2019-05-17T21:48:43.296Z,65.30
2019-05-17T21:51:13.679Z,65.46
2019-05-17T21:53:44.056Z,65.57
2019-05-17T21:56:14.317Z,65.75
2019-05-17T21:58:44.541Z,65.92
2019-05-17T22:01:19.536Z,65.96
2019-05-17T22:03:49.844Z,66.16
2019-05-17T22:06:20.197Z,66.33
2019-05-17T22:08:50.914Z,66.41
2019-05-17T22:11:21.529Z,66.35
2019-05-17T22:13:51.967Z,66.29
2019-05-17T22:16:22.732Z,66.27
2019-05-17T22:18:53.134Z,66.23
2019-05-17T22:21:23.417Z,66.08
2019-05-17T22:23:54.114Z,65.88
2019-05-17T22:26:24.428Z,65.92
2019-05-17T22:28:54.843Z,65.94
2019-05-17T22:31:25.247Z,66.06
2019-05-17T22:33:55.658Z,66.11
2019-05-17T22:36:25.989Z,66.13
2019-05-17T22:38:59.577Z,66.13
2019-05-17T22:41:30.268Z,66.22
2019-05-17T22:44:00.582Z,66.18
2019-05-17T22:46:36.015Z,66.32
2019-05-17T22:49:03.784Z,66.48
2019-05-17T22:51:34.150Z,66.58
2019-05-17T22:54:05.096Z,66.70
2019-05-17T22:56:35.416Z,66.87
2019-05-17T22:59:05.740Z,66.86
2019-05-17T23:01:37.350Z,67.00
2019-05-17T23:04:07.713Z,67.10
2019-05-17T23:06:38.195Z,67.21
2019-05-17T23:09:09.020Z,67.25
2019-05-17T23:11:39.476Z,67.43
2019-05-17T23:14:09.953Z,67.44
2019-05-17T23:16:51.194Z,67.54
2019-05-17T23:19:12.827Z,67.54
2019-05-17T23:21:43.259Z,67.62
2019-05-17T23:24:13.830Z,67.66
2019-05-17T23:26:44.314Z,67.74
2019-05-17T23:29:14.854Z,67.82
2019-05-17T23:31:45.425Z,67.91
2019-05-17T23:34:18.274Z,67.95
2019-05-17T23:36:48.703Z,68.03
2019-05-17T23:39:19.153Z,68.03
2019-05-17T23:41:49.834Z,68.14
2019-05-17T23:44:20.332Z,68.16
2019-05-17T23:47:05.797Z,68.21
2019-05-17T23:49:22.817Z,68.20
2019-05-17T23:51:53.198Z,68.25
2019-05-17T23:54:23.734Z,68.29
2019-05-17T23:56:54.169Z,68.17
2019-05-17T23:59:24.522Z,68.11
